Airfield :
LOGIN :

Register | Disclaimer

   EN    FR    IT 

 










Legend :    VFR   Marginal VFR   IFR   Intensive IFR   Very Intensive IFR
Visi :
Ceiling :
>= 8 km
>= 3000ft
5 to 8 km
1000 to 3000 ft
1500m to 5 km
500 to 1000 ft
800 to 1500m
200 to 500 ft
< 800m
< 200 ft
Symbols :   Thunderstorms  Fog  Heavy snow  Heavy precipitations  Wind > 20 kt
SIGMETs :     Misc.  Thunderstorms  Icing  Turbulence  Mountain Waves  Volcanic Ashes






- Airport Elevation : 330 ft
- IATA code : LVA


LFOV - Laval-Entrammes

CURRENT METAR :
  • 012230Z AUTO 25003KT CAVOK 14/09 Q1022

EXPIRED METARs :
  • 011630Z AUTO 22006KT 170V290 9999 FEW045 OVC074 21/09 Q1021
  • 012200Z AUTO 24003KT CAVOK 14/10 Q1022
  • 012130Z AUTO 23003KT CAVOK 15/10 Q1022
  • 012100Z AUTO 25002KT CAVOK 15/10 Q1021
  • 012030Z AUTO 26002KT //// // NSC 16/10 Q1021
  • 010530Z AUTO VRB02KT CAVOK 10/10 Q1020
  • 012000Z AUTO 26004KT CAVOK 17/10 Q1021

TAF N/A



MET'MAP, your aeronautical weather chart ! - Copyright ORBIFLY December 2007 - Disclaimer

ORBIFLY MET'MAP TEAM :

Programming & Development : Alexandra Zaïnal
Original concept : Baudouin d'Aumeries
Technical & hardware support : Manuel Goepfert
Assistance : Marc-Olivier Méhu




SOURCES & CREDITS :

   NOAA